createdAt,value
2023-10-27T04:15:26.712Z,99.99
2023-10-27T04:16:26.765Z,99.99
2023-10-27T04:17:26.751Z,99.99
2023-10-27T04:18:26.713Z,99.99
2023-10-27T04:19:26.692Z,99.99
2023-10-27T04:20:26.671Z,99.99
2023-10-27T04:21:26.630Z,99.99
2023-10-27T04:22:26.674Z,99.99
2023-10-27T04:23:26.612Z,99.99
2023-10-27T04:24:26.615Z,99.99
2023-10-27T04:25:26.618Z,99.99
2023-10-27T04:26:26.596Z,99.99
2023-10-27T04:27:26.580Z,99.99
2023-10-27T04:28:26.581Z,99.99
2023-10-27T04:29:26.535Z,99.99
2023-10-27T04:30:26.526Z,99.99
2023-10-27T04:31:26.543Z,99.99
2023-10-27T04:32:26.565Z,99.99
2023-10-27T04:33:26.678Z,99.99
2023-10-27T04:34:26.525Z,99.99
2023-10-27T04:35:26.456Z,99.99
2023-10-27T04:36:26.614Z,99.99
2023-10-27T04:37:26.455Z,99.99
2023-10-27T04:38:26.425Z,99.99
2023-10-27T04:39:26.409Z,99.99
2023-10-27T04:40:26.409Z,99.84
2023-10-27T04:41:26.393Z,99.57
2023-10-27T04:42:26.371Z,99.99
2023-10-27T04:43:26.413Z,99.99
2023-10-27T04:44:26.439Z,99.99
2023-10-27T04:45:26.350Z,99.99
2023-10-27T04:46:26.361Z,99.93
2023-10-27T04:47:26.360Z,99.43
2023-10-27T04:48:26.308Z,99.73
2023-10-27T04:49:26.307Z,99.73
2023-10-27T04:50:26.280Z,99.99
2023-10-27T04:51:26.258Z,99.84
2023-10-27T04:52:26.285Z,98.81
2023-10-27T04:53:26.223Z,99.43
2023-10-27T04:54:26.227Z,99.18
2023-10-27T04:55:26.262Z,98.61
2023-10-27T04:56:26.187Z,98.77
2023-10-27T04:57:26.176Z,98.71
2023-10-27T04:58:26.192Z,98.66
2023-10-27T04:59:26.142Z,98.30
2023-10-27T05:00:26.260Z,97.53
2023-10-27T05:01:28.496Z,97.47
2023-10-27T05:02:26.108Z,97.92
2023-10-27T05:03:26.134Z,98.69
2023-10-27T05:04:26.131Z,99.45
2023-10-27T05:05:26.093Z,99.99
2023-10-27T05:06:26.048Z,99.99
2023-10-27T05:07:26.081Z,99.99
2023-10-27T05:08:26.026Z,99.99
2023-10-27T05:09:26.026Z,99.99
2023-10-27T05:10:26.030Z,99.99
2023-10-27T05:11:25.988Z,99.99
2023-10-27T05:12:25.972Z,99.99
2023-10-27T05:13:25.984Z,99.99
2023-10-27T05:14:25.948Z,99.99
2023-10-27T05:15:25.938Z,99.99
2023-10-27T05:16:25.965Z,99.99
2023-10-27T05:17:25.925Z,99.99
2023-10-27T05:18:26.011Z,99.99
2023-10-27T05:19:25.949Z,99.99
2023-10-27T05:20:25.862Z,99.99
2023-10-27T05:21:25.852Z,99.99
2023-10-27T05:22:25.868Z,99.99
2023-10-27T05:23:25.838Z,99.99
2023-10-27T05:24:25.817Z,99.99
2023-10-27T05:25:25.837Z,99.99
2023-10-27T05:26:25.782Z,99.99
2023-10-27T05:27:25.779Z,99.99
2023-10-27T05:28:25.793Z,99.99
2023-10-27T05:29:25.754Z,99.99
2023-10-27T05:30:25.735Z,99.99
2023-10-27T05:31:25.771Z,99.99
2023-10-27T05:32:25.736Z,99.99
2023-10-27T05:33:25.705Z,99.99
2023-10-27T05:34:26.379Z,99.99
2023-10-27T05:35:25.674Z,99.99
2023-10-27T05:36:25.656Z,99.99
2023-10-27T05:37:25.719Z,99.99
2023-10-27T05:38:25.643Z,99.99
2023-10-27T05:39:25.621Z,99.99
2023-10-27T05:40:25.608Z,99.99
2023-10-27T05:41:25.620Z,99.99
2023-10-27T05:42:25.590Z,99.99
2023-10-27T05:43:25.648Z,99.99
2023-10-27T05:44:25.557Z,99.99
2023-10-27T05:45:25.554Z,99.99
2023-10-27T05:46:25.567Z,99.99
2023-10-27T05:47:25.557Z,99.99
2023-10-27T05:48:25.554Z,99.99
2023-10-27T05:49:25.545Z,99.99
2023-10-27T05:50:25.478Z,99.99
2023-10-27T05:51:25.475Z,99.99
2023-10-27T05:52:25.491Z,99.99
2023-10-27T05:53:25.443Z,99.99
2023-10-27T05:54:25.424Z,99.99
2023-10-27T05:55:25.436Z,99.99
2023-10-27T05:56:25.411Z,99.99
2023-10-27T05:57:25.404Z,99.99
2023-10-27T05:58:25.408Z,99.99
2023-10-27T05:59:25.361Z,99.99
2023-10-27T06:00:25.348Z,99.99
2023-10-27T06:01:25.361Z,99.99
2023-10-27T06:02:25.329Z,99.99
2023-10-27T06:03:25.371Z,99.99
2023-10-27T06:04:25.323Z,99.99
2023-10-27T06:05:25.282Z,99.99
2023-10-27T06:06:25.283Z,99.99
2023-10-27T06:07:25.271Z,99.99
2023-10-27T06:08:25.251Z,99.99
2023-10-27T06:09:25.232Z,99.99
2023-10-27T06:10:25.279Z,99.99
2023-10-27T06:11:25.221Z,99.99
2023-10-27T06:12:25.186Z,99.99
2023-10-27T06:13:25.237Z,99.99
2023-10-27T06:14:25.166Z,99.99
2023-10-27T06:15:25.194Z,99.99
2023-10-27T06:16:25.163Z,99.99
2023-10-27T06:17:25.123Z,99.99
2023-10-27T06:18:25.112Z,99.99
2023-10-27T06:19:25.194Z,99.99
2023-10-27T06:20:25.163Z,99.99
2023-10-27T06:21:25.084Z,99.99
2023-10-27T06:22:25.106Z,99.99
2023-10-27T06:23:25.053Z,99.99
2023-10-27T06:24:25.042Z,99.99
2023-10-27T06:25:25.075Z,99.99
2023-10-27T06:26:25.007Z,99.99
2023-10-27T06:27:24.996Z,99.99
2023-10-27T06:28:25.039Z,99.99
2023-10-27T06:29:24.985Z,99.99
2023-10-27T06:30:24.965Z,99.99
2023-10-27T06:31:25.043Z,99.99
2023-10-27T06:32:24.981Z,99.99
2023-10-27T06:33:24.935Z,99.99
2023-10-27T06:34:24.968Z,99.99
2023-10-27T06:35:24.892Z,99.99
2023-10-27T06:36:24.881Z,99.99
2023-10-27T06:37:24.934Z,99.99
2023-10-27T06:38:24.869Z,99.99
2023-10-27T06:39:24.851Z,99.99
2023-10-27T06:40:24.869Z,99.99
2023-10-27T06:41:24.820Z,99.99
2023-10-27T06:42:24.799Z,99.99
2023-10-27T06:43:24.831Z,99.99
2023-10-27T06:44:24.774Z,99.99
2023-10-27T06:45:24.768Z,99.99
2023-10-27T06:46:24.784Z,99.99
2023-10-27T06:47:24.785Z,99.99
2023-10-27T06:48:24.856Z,99.99
2023-10-27T06:49:24.742Z,99.99
2023-10-27T06:50:24.695Z,99.99
2023-10-27T06:51:24.728Z,99.99
2023-10-27T06:52:24.700Z,99.99
2023-10-27T06:53:24.685Z,99.99
2023-10-27T06:54:24.650Z,99.99
2023-10-27T06:55:24.688Z,99.99
2023-10-27T06:56:24.622Z,99.99
2023-10-27T06:57:24.619Z,99.99
2023-10-27T06:58:24.605Z,99.99
2023-10-27T06:59:24.677Z,99.99
2023-10-27T07:00:24.570Z,99.99
2023-10-27T07:01:24.586Z,99.99
2023-10-27T07:02:24.677Z,99.99
2023-10-27T07:03:31.339Z,99.99
2023-10-27T07:04:25.710Z,99.99
2023-10-27T07:05:24.612Z,99.99
2023-10-27T07:06:24.500Z,99.99
2023-10-27T07:07:28.597Z,99.99
2023-10-27T07:08:24.483Z,99.99
2023-10-27T07:09:24.465Z,99.99
2023-10-27T07:10:24.504Z,99.99
2023-10-27T07:11:24.453Z,99.99
2023-10-27T07:12:24.437Z,99.99
2023-10-27T07:13:24.476Z,99.99
2023-10-27T07:14:24.404Z,99.99
2023-10-27T07:15:24.413Z,99.99
2023-10-27T07:16:24.435Z,99.99
2023-10-27T07:17:24.374Z,99.99
2023-10-27T07:18:24.354Z,99.99
2023-10-27T07:19:24.421Z,99.99
2023-10-27T07:20:24.401Z,99.99
2023-10-27T07:21:24.332Z,99.99
2023-10-27T07:22:24.321Z,99.99
2023-10-27T07:23:24.283Z,99.99
2023-10-27T07:24:24.279Z,99.99
2023-10-27T07:25:24.297Z,99.99
2023-10-27T07:26:24.266Z,99.99
2023-10-27T07:27:24.366Z,99.99
2023-10-27T07:28:24.255Z,99.99
2023-10-27T07:29:24.213Z,99.99
2023-10-27T07:30:24.208Z,99.99
2023-10-27T07:31:24.292Z,99.99
2023-10-27T07:32:24.179Z,99.99
2023-10-27T07:33:24.193Z,99.99
2023-10-27T07:34:24.177Z,99.99
2023-10-27T07:35:24.149Z,99.99
2023-10-27T07:36:24.124Z,99.99
2023-10-27T07:37:24.226Z,99.99
2023-10-27T07:38:24.104Z,99.99
2023-10-27T07:39:24.083Z,99.99
2023-10-27T07:40:24.144Z,99.99
2023-10-27T07:41:24.056Z,99.99
2023-10-27T07:42:24.060Z,99.99
2023-10-27T07:43:24.053Z,99.99
2023-10-27T07:44:24.024Z,99.99
2023-10-27T07:45:24.016Z,99.99
2023-10-27T07:46:24.054Z,99.99
2023-10-27T07:47:24.008Z,99.99
2023-10-27T07:48:24.015Z,99.99
2023-10-27T07:49:24.023Z,99.99
2023-10-27T07:50:23.966Z,99.99
2023-10-27T07:51:23.930Z,99.99
2023-10-27T07:52:23.959Z,99.99
2023-10-27T07:53:23.913Z,99.99
2023-10-27T07:54:23.921Z,99.99
2023-10-27T07:55:23.962Z,99.99
2023-10-27T07:56:23.873Z,99.99
2023-10-27T07:57:23.856Z,99.99
2023-10-27T07:58:23.864Z,99.99
2023-10-27T07:59:23.843Z,99.99
2023-10-27T08:00:23.889Z,99.99
2023-10-27T08:01:24.039Z,99.99
2023-10-27T08:02:23.793Z,99.99
2023-10-27T08:03:23.970Z,99.99
2023-10-27T08:04:23.792Z,99.99
2023-10-27T08:05:23.755Z,99.99
2023-10-27T08:06:23.753Z,99.99
2023-10-27T08:07:23.755Z,99.99
2023-10-27T08:08:23.765Z,99.99
2023-10-27T08:09:23.770Z,99.99
2023-10-27T08:10:23.752Z,99.99
2023-10-27T08:11:23.707Z,99.99
2023-10-27T08:12:23.739Z,99.99
2023-10-27T08:13:23.706Z,99.99
2023-10-27T08:14:23.642Z,99.99
2023-10-27T08:15:23.629Z,99.99
2023-10-27T08:16:23.653Z,99.99
2023-10-27T08:17:23.614Z,99.99
2023-10-27T08:18:23.637Z,99.99
2023-10-27T08:19:23.699Z,99.99
2023-10-27T08:20:23.573Z,99.99
2023-10-27T08:21:23.541Z,99.99
2023-10-27T08:22:23.602Z,99.99
2023-10-27T08:23:23.519Z,99.99
2023-10-27T08:24:23.513Z,99.99
2023-10-27T08:25:23.585Z,99.99
2023-10-27T08:26:23.498Z,99.99
2023-10-27T08:27:23.565Z,99.99
2023-10-27T08:28:23.516Z,99.99
2023-10-27T08:29:23.436Z,99.99
2023-10-27T08:30:23.439Z,99.99
2023-10-27T08:31:23.455Z,99.99
2023-10-27T08:32:23.430Z,99.99
2023-10-27T08:33:23.421Z,99.99
2023-10-27T08:34:23.508Z,99.99
2023-10-27T08:35:23.371Z,99.99
2023-10-27T08:36:24.947Z,99.99
2023-10-27T08:37:23.370Z,99.99
2023-10-27T08:38:23.331Z,99.99
2023-10-27T08:39:23.311Z,99.99
2023-10-27T08:40:23.383Z,99.99
2023-10-27T08:41:23.324Z,99.99
2023-10-27T08:42:23.319Z,99.99
2023-10-27T08:43:23.274Z,99.99
2023-10-27T08:44:25.821Z,99.99
2023-10-27T08:45:23.253Z,99.99
2023-10-27T08:46:23.284Z,99.99
2023-10-27T08:47:23.260Z,99.99
2023-10-27T08:48:23.251Z,99.99
2023-10-27T08:49:23.226Z,99.99
2023-10-27T08:50:23.180Z,99.99
2023-10-27T08:51:23.153Z,99.99
2023-10-27T08:52:23.183Z,99.99
2023-10-27T08:53:23.128Z,99.99
2023-10-27T08:54:23.112Z,99.99
2023-10-27T08:55:23.201Z,99.99
2023-10-27T08:56:23.092Z,99.99
2023-10-27T08:57:23.071Z,99.99
2023-10-27T08:58:23.074Z,99.99
2023-10-27T08:59:23.077Z,99.99
2023-10-27T09:00:23.044Z,99.99
2023-10-27T09:01:23.041Z,99.99
2023-10-27T09:02:23.012Z,99.99
2023-10-27T09:03:22.998Z,99.99
2023-10-27T09:04:23.039Z,99.99
2023-10-27T09:05:23.023Z,99.99
2023-10-27T09:06:22.957Z,99.99
2023-10-27T09:07:22.976Z,99.99
2023-10-27T09:08:22.952Z,99.99
2023-10-27T09:09:22.927Z,99.99
2023-10-27T09:10:22.917Z,99.99
2023-10-27T09:11:22.883Z,99.99
2023-10-27T09:12:22.874Z,99.99
2023-10-27T09:13:22.956Z,99.99
2023-10-27T09:14:22.885Z,99.99
2023-10-27T09:15:22.836Z,99.99
2023-10-27T09:16:22.835Z,99.99
2023-10-27T09:17:22.803Z,99.99
2023-10-27T09:18:22.879Z,99.99
2023-10-27T09:19:22.820Z,99.99
2023-10-27T09:20:22.764Z,99.99
2023-10-27T09:21:22.752Z,99.99
2023-10-27T09:22:29.058Z,99.99
2023-10-27T09:23:23.758Z,99.99
2023-10-27T09:24:22.709Z,99.99
2023-10-27T09:25:22.743Z,99.99
2023-10-27T09:26:22.701Z,99.99
2023-10-27T09:27:22.695Z,99.99
2023-10-27T09:28:22.710Z,99.99
2023-10-27T09:29:22.649Z,99.99
2023-10-27T09:30:22.627Z,99.99
2023-10-27T09:31:22.647Z,99.99
2023-10-27T09:32:22.688Z,99.99
2023-10-27T09:33:22.659Z,99.99
2023-10-27T09:34:22.733Z,99.99
2023-10-27T09:35:22.577Z,99.99
2023-10-27T09:36:24.894Z,99.99
2023-10-27T09:37:22.570Z,99.99
2023-10-27T09:38:22.529Z,99.99
2023-10-27T09:39:22.514Z,99.99
2023-10-27T09:40:22.553Z,99.99
2023-10-27T09:41:22.492Z,99.99
2023-10-27T09:42:22.493Z,99.99
2023-10-27T09:43:22.483Z,99.99
2023-10-27T09:44:22.446Z,99.99
2023-10-27T09:45:22.439Z,99.99
2023-10-27T09:46:22.490Z,99.99
2023-10-27T09:47:22.429Z,99.99
2023-10-27T09:48:22.470Z,99.99
2023-10-27T09:49:22.577Z,99.99
2023-10-27T09:50:22.373Z,99.99
2023-10-27T09:51:22.364Z,99.99
2023-10-27T09:52:22.366Z,99.99
2023-10-27T09:53:22.326Z,99.99
2023-10-27T09:54:22.320Z,99.99
2023-10-27T09:55:22.370Z,99.99
2023-10-27T09:56:22.304Z,99.99
2023-10-27T09:57:22.325Z,99.99
2023-10-27T09:58:22.260Z,99.99
2023-10-27T09:59:22.253Z,99.99
2023-10-27T10:00:22.268Z,99.99
2023-10-27T10:01:22.300Z,99.99
2023-10-27T10:02:22.207Z,99.99
2023-10-27T10:03:22.296Z,99.99
2023-10-27T10:04:22.225Z,99.99
2023-10-27T10:05:22.340Z,99.99
2023-10-27T10:06:22.161Z,99.99
2023-10-27T10:07:22.222Z,99.99
2023-10-27T10:08:22.132Z,99.99
2023-10-27T10:09:22.130Z,99.99
2023-10-27T10:10:22.154Z,99.99
2023-10-27T10:11:22.097Z,99.99
2023-10-27T10:12:22.081Z,99.99
2023-10-27T10:13:22.103Z,99.99
2023-10-27T10:14:22.068Z,99.99
2023-10-27T10:15:22.057Z,99.99
2023-10-27T10:16:22.038Z,99.99
2023-10-27T10:17:22.015Z,99.99
2023-10-27T10:18:22.003Z,99.99
2023-10-27T10:19:22.031Z,99.99
2023-10-27T10:20:21.978Z,99.99
2023-10-27T10:21:21.959Z,99.99
2023-10-27T10:22:22.011Z,99.99
2023-10-27T10:23:21.936Z,99.99
2023-10-27T10:24:21.940Z,99.99
2023-10-27T10:25:21.951Z,99.99
2023-10-27T10:26:21.898Z,99.99
2023-10-27T10:27:21.904Z,99.99
2023-10-27T10:28:28.998Z,99.99
2023-10-27T10:29:21.880Z,99.99
2023-10-27T10:30:21.883Z,99.99
2023-10-27T10:31:21.832Z,99.99
2023-10-27T10:32:21.826Z,99.99
2023-10-27T10:33:21.854Z,99.99
2023-10-27T10:34:21.825Z,99.99
2023-10-27T10:35:21.841Z,99.99
2023-10-27T10:36:21.780Z,99.99
2023-10-27T10:37:24.283Z,99.99
2023-10-27T10:38:21.768Z,99.99
2023-10-27T10:39:21.726Z,99.99
2023-10-27T10:40:21.843Z,99.99
2023-10-27T10:41:21.743Z,99.99
2023-10-27T10:42:21.687Z,99.99
2023-10-27T10:43:21.921Z,99.99
2023-10-27T10:44:21.676Z,99.99
2023-10-27T10:45:21.708Z,99.99
2023-10-27T10:46:21.671Z,99.99
2023-10-27T10:47:21.629Z,99.99
2023-10-27T10:48:21.721Z,99.99
2023-10-27T10:49:21.661Z,99.99
2023-10-27T10:50:21.594Z,99.99
2023-10-27T10:51:21.605Z,99.99
2023-10-27T10:52:21.585Z,99.99
2023-10-27T10:53:21.550Z,99.99
2023-10-27T10:54:21.543Z,99.99
2023-10-27T10:55:21.578Z,99.99
2023-10-27T10:56:21.532Z,99.99
2023-10-27T10:57:21.506Z,99.99
2023-10-27T10:58:21.522Z,99.99
2023-10-27T10:59:21.484Z,99.99
2023-10-27T11:00:21.464Z,99.99
2023-10-27T11:01:21.465Z,99.99
2023-10-27T11:02:21.465Z,99.99
2023-10-27T11:03:21.419Z,99.99
2023-10-27T11:04:27.104Z,99.99
2023-10-27T11:05:22.605Z,99.99
2023-10-27T11:06:21.506Z,99.99
2023-10-27T11:07:21.409Z,99.99
2023-10-27T11:08:21.359Z,99.99
2023-10-27T11:09:21.345Z,99.99
2023-10-27T11:10:22.786Z,99.99
2023-10-27T11:11:21.775Z,99.99
2023-10-27T11:12:21.321Z,99.99
2023-10-27T11:13:21.322Z,99.99
2023-10-27T11:14:21.291Z,99.99
2023-10-27T11:15:21.258Z,99.99
2023-10-27T11:16:21.288Z,99.99
2023-10-27T11:17:21.243Z,99.99
2023-10-27T11:18:21.438Z,99.99
2023-10-27T11:19:21.264Z,99.99
2023-10-27T11:20:21.201Z,99.99
2023-10-27T11:21:21.205Z,99.99
2023-10-27T11:22:21.244Z,99.99
2023-10-27T11:23:21.176Z,99.99
2023-10-27T11:24:21.162Z,99.99
2023-10-27T11:25:21.178Z,99.99
2023-10-27T11:26:21.141Z,99.99
2023-10-27T11:27:21.861Z,99.99
2023-10-27T11:28:21.122Z,99.99
2023-10-27T11:29:21.103Z,99.99
2023-10-27T11:30:21.098Z,99.99
2023-10-27T11:31:21.065Z,99.99
2023-10-27T11:32:21.049Z,99.99
2023-10-27T11:33:21.037Z,99.99
2023-10-27T11:34:21.062Z,99.99
2023-10-27T11:35:21.010Z,99.99
2023-10-27T11:36:20.997Z,99.99
2023-10-27T11:37:21.142Z,99.99
2023-10-27T11:38:21.012Z,99.99
2023-10-27T11:39:20.966Z,99.99
2023-10-27T11:40:20.977Z,99.99
2023-10-27T11:41:20.930Z,99.99
2023-10-27T11:42:20.913Z,99.99
2023-10-27T11:43:20.939Z,99.99
2023-10-27T11:44:20.924Z,99.99
2023-10-27T11:45:20.889Z,99.99
2023-10-27T11:46:20.926Z,99.99
2023-10-27T11:47:20.846Z,99.99
2023-10-27T11:48:20.906Z,99.99
2023-10-27T11:49:20.880Z,99.99
2023-10-27T11:50:20.956Z,99.99
2023-10-27T11:51:20.796Z,99.99
2023-10-27T11:52:21.031Z,99.99
2023-10-27T11:53:20.776Z,99.99
2023-10-27T11:54:20.792Z,99.99
2023-10-27T11:55:20.759Z,99.99
2023-10-27T11:56:20.751Z,99.99
2023-10-27T11:57:20.717Z,99.99
2023-10-27T11:58:20.746Z,99.99
2023-10-27T11:59:20.716Z,99.99
2023-10-27T12:00:20.692Z,99.99
2023-10-27T12:01:20.750Z,99.99
2023-10-27T12:02:20.660Z,99.99
2023-10-27T12:03:20.710Z,99.99
2023-10-27T12:04:20.699Z,99.99
2023-10-27T12:05:20.677Z,99.99
2023-10-27T12:06:20.609Z,99.99
2023-10-27T12:07:20.611Z,99.99
2023-10-27T12:08:20.590Z,99.99
2023-10-27T12:09:20.571Z,99.99
2023-10-27T12:10:20.572Z,99.99
2023-10-27T12:11:20.544Z,99.99
2023-10-27T12:12:20.552Z,99.99
2023-10-27T12:13:20.535Z,99.99
2023-10-27T12:14:20.553Z,99.99
2023-10-27T12:15:22.580Z,99.99
2023-10-27T12:16:20.494Z,99.99
2023-10-27T12:17:20.494Z,99.99
2023-10-27T12:18:20.451Z,99.99
2023-10-27T12:19:20.493Z,99.99
2023-10-27T12:20:20.489Z,99.99
2023-10-27T12:21:20.405Z,99.99
2023-10-27T12:22:20.422Z,99.99
2023-10-27T12:23:20.381Z,99.99
2023-10-27T12:24:20.399Z,99.99
2023-10-27T12:25:20.414Z,99.99
2023-10-27T12:26:20.348Z,99.99
2023-10-27T12:27:21.183Z,99.99
2023-10-27T12:28:20.370Z,99.99
2023-10-27T12:29:20.313Z,99.99
2023-10-27T12:30:20.292Z,99.99
2023-10-27T12:31:20.298Z,99.99
2023-10-27T12:32:20.363Z,99.99
2023-10-27T12:33:20.251Z,99.99
2023-10-27T12:34:20.328Z,99.99
2023-10-27T12:35:20.225Z,99.99
2023-10-27T12:36:20.270Z,99.99
2023-10-27T12:37:20.324Z,99.99
2023-10-27T12:38:20.203Z,99.99
2023-10-27T12:39:20.177Z,99.99
2023-10-27T12:40:20.215Z,99.99
2023-10-27T12:41:20.172Z,99.99
2023-10-27T12:42:20.143Z,99.99
2023-10-27T12:43:20.138Z,99.99
2023-10-27T12:44:20.856Z,99.99
2023-10-27T12:45:20.117Z,99.99
2023-10-27T12:46:20.133Z,99.99
2023-10-27T12:47:20.068Z,99.99
2023-10-27T12:48:20.082Z,99.99
2023-10-27T12:49:20.120Z,99.99
2023-10-27T12:50:20.396Z,99.99
2023-10-27T12:51:20.038Z,99.99
2023-10-27T12:52:20.033Z,99.99
2023-10-27T12:53:19.988Z,99.99
2023-10-27T12:54:20.883Z,99.99
2023-10-27T12:55:20.025Z,99.99
2023-10-27T12:56:19.961Z,99.99
2023-10-27T12:57:19.941Z,99.99
2023-10-27T12:58:20.014Z,99.99
2023-10-27T12:59:19.942Z,99.99
2023-10-27T13:00:19.932Z,99.99
2023-10-27T13:01:19.915Z,99.99
2023-10-27T13:02:19.883Z,99.99
2023-10-27T13:03:19.981Z,99.99
2023-10-27T13:04:19.879Z,99.99
2023-10-27T13:05:19.858Z,99.99
2023-10-27T13:06:19.833Z,99.99
2023-10-27T13:07:19.841Z,99.99
2023-10-27T13:08:19.797Z,99.99
2023-10-27T13:09:19.794Z,99.99
2023-10-27T13:10:19.807Z,99.99
2023-10-27T13:11:19.810Z,99.99
2023-10-27T13:12:19.770Z,99.99
2023-10-27T13:13:19.755Z,99.99
2023-10-27T13:14:19.736Z,99.99
2023-10-27T13:15:19.725Z,99.99
2023-10-27T13:16:19.726Z,99.99
2023-10-27T13:17:19.694Z,99.99
2023-10-27T13:18:19.788Z,99.99
2023-10-27T13:19:19.667Z,99.99
2023-10-27T13:20:19.644Z,99.99
2023-10-27T13:21:19.624Z,99.99
2023-10-27T13:22:19.642Z,99.99
2023-10-27T13:23:19.605Z,99.99
2023-10-27T13:24:19.647Z,99.99
2023-10-27T13:25:19.618Z,99.99
2023-10-27T13:26:19.855Z,99.99
2023-10-27T13:27:19.539Z,99.99
2023-10-27T13:28:19.580Z,99.99
2023-10-27T13:29:19.528Z,99.99
2023-10-27T13:30:19.508Z,99.99
2023-10-27T13:31:19.496Z,99.99
2023-10-27T13:32:19.484Z,99.99
2023-10-27T13:33:19.576Z,99.99
2023-10-27T13:34:19.493Z,99.99
2023-10-27T13:35:19.446Z,99.99
2023-10-27T13:36:19.433Z,99.99
2023-10-27T13:37:19.461Z,99.99
2023-10-27T13:38:19.419Z,99.99
2023-10-27T13:39:19.394Z,99.99
2023-10-27T13:40:19.556Z,99.99
2023-10-27T13:41:19.385Z,99.99
2023-10-27T13:42:19.386Z,99.99
2023-10-27T13:43:19.409Z,99.99
2023-10-27T13:44:19.329Z,99.99
2023-10-27T13:45:19.306Z,99.99
2023-10-27T13:46:19.325Z,99.99
2023-10-27T13:47:19.304Z,99.99
2023-10-27T13:48:19.363Z,99.99
2023-10-27T13:49:19.269Z,99.99
2023-10-27T13:50:19.252Z,99.99
2023-10-27T13:51:19.252Z,99.99
2023-10-27T13:52:19.261Z,99.99
2023-10-27T13:53:19.202Z,99.99
2023-10-27T13:54:19.211Z,99.99
2023-10-27T13:55:19.237Z,99.99
2023-10-27T13:56:21.019Z,99.99
2023-10-27T13:57:19.149Z,99.99
2023-10-27T13:58:19.160Z,99.99
2023-10-27T13:59:19.129Z,99.99
2023-10-27T14:00:19.220Z,99.99
2023-10-27T14:01:19.136Z,99.99
2023-10-27T14:02:19.099Z,99.99
2023-10-27T14:03:19.198Z,99.99
2023-10-27T14:04:19.204Z,99.99
2023-10-27T14:05:19.198Z,99.99
2023-10-27T14:06:19.049Z,99.99
2023-10-27T14:07:19.052Z,99.99
2023-10-27T14:08:19.021Z,99.99
2023-10-27T14:09:18.996Z,99.99
2023-10-27T14:10:19.074Z,99.99
2023-10-27T14:11:19.041Z,99.99
2023-10-27T14:12:18.966Z,99.99
2023-10-27T14:13:19.007Z,99.99
2023-10-27T14:14:18.942Z,99.99
2023-10-27T14:15:18.931Z,99.99
2023-10-27T14:16:18.953Z,99.99
2023-10-27T14:17:18.891Z,99.99
2023-10-27T14:18:18.994Z,99.99
2023-10-27T14:19:18.915Z,99.99
2023-10-27T14:20:18.889Z,99.99
2023-10-27T14:21:18.842Z,99.99
2023-10-27T14:22:18.839Z,99.99
2023-10-27T14:23:18.812Z,99.99
2023-10-27T14:24:18.820Z,99.99
2023-10-27T14:25:18.820Z,99.99
2023-10-27T14:26:18.792Z,99.99
2023-10-27T14:27:18.778Z,99.99
2023-10-27T14:28:18.814Z,99.99
2023-10-27T14:29:18.749Z,99.99
2023-10-27T14:30:18.779Z,99.99
2023-10-27T14:31:18.758Z,99.99
2023-10-27T14:32:18.707Z,99.99
2023-10-27T14:33:18.724Z,99.99
2023-10-27T14:34:18.730Z,99.99
2023-10-27T14:35:18.664Z,99.99
2023-10-27T14:36:21.188Z,99.99
2023-10-27T14:37:18.757Z,99.99
2023-10-27T14:38:18.631Z,99.99
2023-10-27T14:39:18.620Z,99.99
2023-10-27T14:40:18.613Z,99.99
2023-10-27T14:41:18.580Z,99.99
2023-10-27T14:42:18.572Z,99.99
2023-10-27T14:43:18.616Z,99.99
2023-10-27T14:44:18.566Z,99.99
2023-10-27T14:45:18.544Z,99.99
2023-10-27T14:46:18.557Z,99.99
2023-10-27T14:47:22.907Z,99.99
2023-10-27T14:48:19.635Z,99.99
2023-10-27T14:49:18.555Z,99.99
2023-10-27T14:50:18.487Z,99.99
2023-10-27T14:51:18.448Z,99.99
2023-10-27T14:52:18.478Z,99.99
2023-10-27T14:53:18.442Z,99.99
2023-10-27T14:54:18.418Z,99.99
2023-10-27T14:55:18.460Z,99.99
2023-10-27T14:56:18.396Z,99.99
2023-10-27T14:57:18.379Z,99.99
2023-10-27T14:58:18.402Z,99.99
2023-10-27T14:59:18.345Z,99.99
2023-10-27T15:00:18.341Z,99.99
2023-10-27T15:01:18.333Z,99.99
2023-10-27T15:02:18.321Z,99.99
2023-10-27T15:03:18.319Z,99.99
2023-10-27T15:04:18.314Z,99.99
2023-10-27T15:05:18.294Z,99.99
2023-10-27T15:06:18.283Z,99.99
2023-10-27T15:07:18.336Z,99.99
2023-10-27T15:08:18.307Z,99.99
2023-10-27T15:09:18.261Z,99.99
2023-10-27T15:10:18.229Z,99.99
2023-10-27T15:11:18.250Z,99.99
2023-10-27T15:12:18.206Z,99.99
2023-10-27T15:13:18.189Z,99.99
2023-10-27T15:14:18.158Z,99.99
2023-10-27T15:15:18.190Z,99.99
2023-10-27T15:16:18.350Z,99.99
2023-10-27T15:17:18.110Z,99.99
2023-10-27T15:18:18.107Z,99.99
2023-10-27T15:19:18.133Z,99.99
2023-10-27T15:20:18.169Z,99.99
2023-10-27T15:21:18.070Z,99.99
2023-10-27T15:22:18.084Z,99.99
2023-10-27T15:23:18.048Z,99.99
2023-10-27T15:24:18.026Z,99.99
2023-10-27T15:25:18.086Z,99.99
2023-10-27T15:26:18.023Z,99.99
2023-10-27T15:27:17.977Z,99.99
2023-10-27T15:28:18.025Z,99.99
2023-10-27T15:29:17.964Z,99.99
2023-10-27T15:30:17.993Z,99.99
2023-10-27T15:31:17.930Z,99.99
2023-10-27T15:32:17.926Z,99.99
2023-10-27T15:33:17.918Z,99.99
2023-10-27T15:34:17.937Z,99.99
2023-10-27T15:35:17.892Z,99.99
2023-10-27T15:36:17.867Z,99.99
2023-10-27T15:37:17.881Z,99.99
2023-10-27T15:38:17.852Z,99.99
2023-10-27T15:39:17.841Z,99.99
2023-10-27T15:40:17.876Z,99.99
2023-10-27T15:41:17.795Z,99.99
2023-10-27T15:42:17.792Z,99.99
2023-10-27T15:43:17.849Z,99.99
2023-10-27T15:44:17.786Z,99.99
2023-10-27T15:45:17.747Z,99.99
2023-10-27T15:46:17.766Z,99.99
2023-10-27T15:47:17.729Z,99.99
2023-10-27T15:48:17.800Z,99.99
2023-10-27T15:49:17.785Z,99.99
2023-10-27T15:50:17.693Z,99.99
2023-10-27T15:51:17.686Z,99.99
2023-10-27T15:52:17.710Z,99.99
2023-10-27T15:53:17.653Z,99.99
2023-10-27T15:54:17.647Z,99.99
2023-10-27T15:55:17.662Z,99.99
2023-10-27T15:56:17.615Z,99.99
2023-10-27T15:57:17.621Z,99.99
2023-10-27T15:58:17.623Z,99.99
2023-10-27T15:59:17.632Z,99.99
2023-10-27T16:00:17.594Z,99.99
2023-10-27T16:01:17.658Z,99.99
2023-10-27T16:02:17.529Z,99.99
2023-10-27T16:03:17.591Z,99.99
2023-10-27T16:04:17.632Z,99.99
2023-10-27T16:05:17.530Z,99.99
2023-10-27T16:06:17.483Z,99.99
2023-10-27T16:07:17.477Z,99.99
2023-10-27T16:08:17.484Z,99.99
2023-10-27T16:09:35.318Z,99.99
2023-10-27T16:10:18.449Z,99.99
2023-10-27T16:11:17.436Z,99.99
2023-10-27T16:12:17.403Z,99.99
2023-10-27T16:13:17.518Z,99.99
2023-10-27T16:14:17.388Z,99.99
2023-10-27T16:15:17.372Z,99.99
2023-10-27T16:16:17.361Z,99.99
2023-10-27T16:17:17.377Z,99.99
2023-10-27T16:18:17.442Z,99.99
2023-10-27T16:19:17.432Z,99.99
2023-10-27T16:20:17.324Z,99.99
2023-10-27T16:21:17.333Z,99.99
2023-10-27T16:22:17.287Z,99.99
2023-10-27T16:23:17.261Z,99.99
2023-10-27T16:24:17.260Z,99.99
2023-10-27T16:25:17.255Z,99.99
2023-10-27T16:26:17.877Z,99.99
2023-10-27T16:27:17.235Z,99.99
2023-10-27T16:28:17.250Z,99.99
2023-10-27T16:29:17.211Z,99.99
2023-10-27T16:30:17.168Z,99.99
2023-10-27T16:31:17.158Z,99.99
2023-10-27T16:32:17.165Z,99.99
2023-10-27T16:33:17.154Z,99.99
2023-10-27T16:34:17.140Z,99.99
2023-10-27T16:35:17.107Z,99.99
2023-10-27T16:36:17.112Z,99.99
2023-10-27T16:37:17.099Z,99.99
2023-10-27T16:38:17.064Z,99.99
2023-10-27T16:39:17.069Z,99.99
2023-10-27T16:40:17.064Z,99.99
2023-10-27T16:41:17.053Z,99.99
2023-10-27T16:42:17.025Z,99.99
2023-10-27T16:43:17.007Z,99.99
2023-10-27T16:44:16.995Z,99.99
2023-10-27T16:45:16.976Z,99.99
2023-10-27T16:46:17.006Z,99.99
2023-10-27T16:47:16.961Z,99.99
2023-10-27T16:48:16.952Z,99.99
2023-10-27T16:49:16.935Z,99.99
2023-10-27T16:50:16.924Z,99.99
2023-10-27T16:51:16.913Z,99.99
2023-10-27T16:52:16.885Z,99.99
2023-10-27T16:53:16.875Z,99.99
2023-10-27T16:54:16.860Z,99.99
2023-10-27T16:55:16.864Z,99.99
2023-10-27T16:56:16.830Z,99.99
2023-10-27T16:57:16.832Z,99.99
2023-10-27T16:58:16.814Z,99.99
2023-10-27T16:59:16.804Z,99.99
2023-10-27T17:00:16.797Z,99.99
2023-10-27T17:01:16.781Z,99.99
2023-10-27T17:02:16.925Z,99.99
2023-10-27T17:03:16.803Z,99.99
2023-10-27T17:04:16.753Z,99.99
2023-10-27T17:05:16.935Z,99.99
2023-10-27T17:06:16.700Z,99.99
2023-10-27T17:07:16.698Z,99.99